Thursday, April 26, 2018, 5:02 PM EDT
Back to Local

KWAL, Wallops Flight Fac Airport

Location: Wallops Island, VA, United States Lat: 37.933
Local Time: 5:02 PM EDT (21:02 GMT) Lon: -75.467
Time Zone: US/Eastern Elev: 39 ft

Show me the last for .
Show Decoded

2018-04-26 15:54 METAR KWAL 261954Z 25010KT 10SM FEW050 FEW070 SCT180 SCT250 21/02 A2987 RMK AO2
                 SLP110 T02060017 =
2018-04-26 14:54 METAR KWAL 261854Z 26010KT 10SM FEW050 FEW070 SCT180 BKN250 20/06 A2987 RMK AO2
                 SLP111 T02000061 =
2018-04-26 13:54 METAR KWAL 261754Z 27010KT 10SM FEW050 FEW070 SCT180 SCT250 19/07 A2987 RMK AO2
                 SLP111 T01940072 10194 20133 53003 =
2018-04-26 12:54 METAR KWAL 261654Z COR 25009KT 10SM FEW060 SCT180 BKN250 19/07 A2986 RMK AO2
                 SLP109 T01890072 =
2018-04-26 11:54 METAR KWAL 261554Z COR 30010KT 10SM FEW060 SCT200 BKN250 18/07 A2986 RMK AO2
                 SLP108 T01830067 =
2018-04-26 10:54 METAR KWAL 261454Z 28009KT 10SM CLR 17/07 A2986 RMK AO2 SLP109 T01670072 50007 =
2018-04-26 09:54 METAR KWAL 261354Z 29010KT 10SM FEW060 BKN200 BKN250 15/06 A2986 RMK AO2 SLP110
                 T01500061 =
2018-04-26 08:54 METAR KWAL 261254Z 33009KT 10SM FEW050 SCT200 BKN250 14/07 A2986 RMK AO2 SLP107
                 T01440067 =
2018-04-26 07:54 METAR KWAL 261154Z COR 29010KT 10SM FEW050 SCT200 BKN250 13/06 A2984 RMK AO2
                 SLP102 70004 T01330061 10156 20128 53027 =
2018-04-26 06:54 METAR KWAL 261054Z AUTO 31007KT 10SM CLR 13/09 A2981 RMK AO2 SLP090 T01330094 =
2018-04-26 05:54 METAR KWAL 260954Z AUTO 31012KT 10SM CLR 14/10 A2978 RMK AO2 SLP080 T01390100 =
2018-04-26 04:54 METAR KWAL 260854Z AUTO 30009KT 10SM CLR 14/12 A2976 RMK AO2 SLP075 T01440122
                 53018 =
2018-04-26 03:54 METAR KWAL 260754Z AUTO 29009KT 10SM CLR 15/13 A2974 RMK AO2 SLP067 T01500133 =
2018-04-26 02:54 METAR KWAL 260654Z AUTO 29011KT 10SM CLR 15/14 A2971 RMK AO2 SLP059 T01500144 =
2018-04-26 01:54 METAR KWAL 260554Z AUTO 28008KT 10SM CLR 16/14 A2971 RMK AO2 SLP058 60004
                 T01560144 10178 20156 53003 =
2018-04-26 00:54 METAR KWAL 260454Z AUTO 29009KT 10SM SCT070 16/15 A2970 RMK AO2 SLP054 T01610150
                 402060133 =
2018-04-26 00:03 METAR KWAL 260403Z AUTO 30008KT 10SM FEW007 BKN070 16/16 A2969 RMK AO2 T01610156
                 =
2018-04-25 23:54 METAR KWAL 260354Z AUTO 30010KT 10SM FEW008 BKN070 16/16 A2969 RMK AO2 RAE08
                 SLP051 P0000 T01610156 =
2018-04-25 23:46 METAR KWAL 260346Z AUTO 30008KT 10SM FEW008 BKN070 16/16 A2969 RMK AO2 RAE08
                 P0000 T01610156 =
2018-04-25 23:33 METAR KWAL 260333Z AUTO 29009KT 10SM BKN009 16/16 A2969 RMK AO2 RAE08 CIG
                 006V012 P0000 T01610156 =
2018-04-25 23:16 METAR KWAL 260316Z AUTO 29007KT 10SM BKN010 BKN037 BKN050 16/16 A2969 RMK AO2
                 RAE08 P0000 T01610156 =
2018-04-25 23:02 METAR KWAL 260302Z AUTO 28008KT 7SM -RA SCT008 BKN036 OVC050 17/16 A2970 RMK AO2
                 P0000 T01670161 =
2018-04-25 22:54 METAR KWAL 260254Z AUTO 28007KT 3SM RA BR FEW008 BKN028 OVC039 17/16 A2970 RMK
                 AO2 RAE13B29 SLP054 P0003 60004 T01670161 50008 =
2018-04-25 22:41 METAR KWAL 260241Z AUTO 29009KT 10SM -RA SCT005 SCT010 OVC018 17/16 A2970 RMK
                 AO2 RAE13B29 P0000 T01670156 =
2018-04-25 22:20 METAR KWAL 260220Z AUTO 27009G15KT 10SM OVC005 17/16 A2971 RMK AO2 RAE13 CIG
                 005V009 P0000 T01670161 =
2018-04-25 21:54 METAR KWAL 260154Z AUTO 26009KT 5SM -RA BR OVC006 17/16 A2971 RMK AO2 RAB32
                 SLP058 P0001 T01670161 =
2018-04-25 21:39 METAR KWAL 260139Z AUTO 27007KT 9SM -RA OVC007 17/16 A2971 RMK AO2 RAB32 P0000
                 T01670156 =
2018-04-25 21:19 METAR KWAL 260119Z AUTO 27008KT 9SM BKN008 OVC120 17/16 A2970 RMK AO2 T01720156
                 =
2018-04-25 21:10 METAR KWAL 260110Z AUTO 28009KT 10SM SCT008 OVC120 17/16 A2970 RMK AO2 T01720156
                 =
2018-04-25 20:54 METAR KWAL 260054Z AUTO 28007KT 10SM SCT075 OVC120 17/16 A2969 RMK AO2 SLP049
                 T01720156 =
2018-04-25 19:54 METAR KWAL 252354Z 27005KT 10SM FEW025 BKN041 OVC065 18/16 A2968 RMK AO2 SLP046
                 T01780156 10206 20172 53007 =
2018-04-25 18:54 METAR KWAL 252254Z 27006KT 10SM FEW060 OVC100 19/15 A2967 RMK AO2 SLP043
                 T01890150 =
2018-04-25 17:54 METAR KWAL 252154Z 19009KT 10SM FEW049 BKN060 BKN080 18/16 A2966 RMK AO2 SLP041
                 T01830156 =

Support USWX by starting your Amazon purchase here.